METAR Data
IDs: Format: Raw Decoded Include TAF

Data at: 0139 UTC 24 Sep 2018

KELD 240053Z AUTO 06007KT 7SM OVC003 23/23 A2990 RMK AO2 CIG 002V006 SLP122 T02280228 $
KELD 232353Z AUTO 05007KT 5SM BR OVC002 23/23 A2990 RMK AO2 SLP122 60000 T02280228 10228 20222 51003 $
KELD 232311Z AUTO 05007KT 4SM BR OVC002 23/23 A2990 RMK AO2 T02280228 $
KELD 232253Z AUTO 04007KT 2SM BR OVC002 23/23 A2990 RMK AO2 RAB10E22 SLP122 P0000 T02280228 $
KELD 232153Z AUTO 04006KT 1 3/4SM BR OVC002 23/ A2989 RMK AO2 RAB10E42 SLP119 P0000 T0228 $
KELD 232144Z AUTO 03008KT 3SM BR OVC002 23/ A2989 RMK AO2 RAB10E42 P0000 T0228 $
KELD 232105Z AUTO 05008KT 2 1/2SM BR OVC002 23/23 A2990 RMK AO2 T02280228 $
KELD 232053Z AUTO 06006KT 3SM BR OVC002 22/22 A2991 RMK AO2 SLP124 T02220222 58021 $
KELD 231953Z AUTO 07006KT 9SM OVC003 23/23 A2993 RMK AO2 SLP131 T02280228 $
KELD 231853Z AUTO 07007KT 10SM OVC004 23/23 A2995 RMK AO2 SLP139 T02280228 $
KELD 231753Z AUTO 04005KT 10SM OVC004 22/22 A2997 RMK AO2 RAE46 SLP146 P0001 60023 T02220222 10222 20194 $
KELD 231719Z AUTO 04006KT 9SM -RA OVC004 21/21 A2998 RMK AO2 P0001 T02110211 $
KELD 231653Z AUTO 05004KT 4SM RA BR 21/21 A2998 RMK AO2 RAB1556B44 SLP151 P0019 T02060206 $
KELD 231632Z AUTO 05006KT 3SM RA BR OVC003 21/21 A2999 RMK AO2 RAB1556 P0014 T02060206 $
KELD 231622Z AUTO 07005KT 2 1/2SM RA BR OVC003 21/21 A2999 RMK AO2 RAB1556 P0011 T02060206 $
KELD 231607Z AUTO 06005KT 1 3/4SM +RA BR OVC003 21/21 A3000 RMK AO2 VIS 1V4 RAB1556 P0005 T02060206 $
KELD 231553Z AUTO 06004KT 4SM BR OVC003 21/21 A3000 RMK AO2 RAB09E51 SLP155 P0001 T02060206 $
KELD 231545Z AUTO 06007KT 4SM -RA BR OVC002 21/21 A2999 RMK AO2 RAB09 P0001 T02060206 $
KELD 231453Z AUTO 04007KT 2 1/2SM BR OVC002 20/20 A2999 RMK AO2 RAB12E52 SLP151 P0002 60002 T02000200 50007 $
KELD 231450Z AUTO 04006KT 2 1/2SM -RA BR OVC002 20/20 A2999 RMK AO2 RAB12 P0002 $
KELD 231432Z AUTO 05006KT 1 1/2SM -RA BR OVC002 20/20 A2999 RMK AO2 RAB12 P0001 T02000200 $
KELD 231353Z AUTO 01004KT 1/2SM FG VV002 20/20 A2998 RMK AO2 SLP149 T02000200 $
KELD 231253Z AUTO 04005KT 1/4SM FG VV002 19/19 A2996 RMK AO2 SLP144 T01940194 $
KELD 231242Z AUTO 02003KT 1/4SM FG VV002 19/19 A2996 RMK AO2 T01940194 $
KELD 231221Z AUTO 03005KT 1/2SM FG VV002 19/19 A2996 RMK AO2 T01940194 $
KELD 231153Z AUTO 03004KT 1SM BR VV002 19/19 A2995 RMK AO2 RAE02 SLP140 P0000 60000 70177 T01940194 10194 20194 55000 $
KELD 231112Z AUTO 04005KT 3/4SM BR VV002 19/19 A2994 RMK AO2 RAE02 P0000 T01940194 $
KELD 231053Z AUTO 04008KT 1SM -RA BR VV002 19/19 A2993 RMK AO2 RAB53 SLP133 P0000 T01940194 $
KELD 230953Z AUTO 04004KT 1/2SM FG VV002 19/19 A2995 RMK AO2 SLP139 T01940194 $
KELD 230853Z AUTO 04004KT 3/4SM BR VV002 19/19 A2996 RMK AO2 SLP141 T01940194 56009 $
KELD 230824Z AUTO 36003KT 3/4SM BR VV002 19/19 A2996 RMK AO2 T01940194 $
KELD 230808Z AUTO 05003KT 1 3/4SM BR OVC002 19/19 A2996 RMK AO2 T01940194 $
KELD 230753Z AUTO 02004KT 4SM BR OVC002 19/19 A2996 RMK AO2 SLP144 T01940194 $
KELD 230653Z AUTO 04003KT 7SM OVC003 19/19 A2997 RMK AO2 SLP145 T01940194 $
KELD 230553Z AUTO 05005KT 3SM BR OVC002 19/19 A2998 RMK AO2 RAE0459 SLP150 P0000 60003 T01890189 10200 20189 402330189 58010 $
KELD 230453Z AUTO 03006KT 4SM -RA BR OVC002 19/19 A3000 RMK AO2 RAB00E18B40 SLP155 P0000 T01890189 $
KELD 230353Z AUTO 04006KT 4SM BR OVC002 19/19 A3000 RMK AO2 RAB0254E20B39E53 SLP157 P0000 T01890189 $
KELD 230253Z AUTO 03006KT 6SM BR OVC003 19/19 A3001 RMK AO2 SLP160 60003 T01890189 53014 $
KELD 230153Z AUTO 04009KT 10SM OVC003 19/19 A3000 RMK AO2 RAE05 CIG 003V009 SLP156 P0000 T01940194 $
KELD 230111Z AUTO 03007KT 10SM OVC005 19/19 A2998 RMK AO2 RAE05 CIG 004V009 P0000 T01940194 $
KELD 230053Z AUTO 02006KT 10SM -RA OVC004 19/19 A2997 RMK AO2 SLP147 P0003 T01940194 $
KELD 222353Z AUTO 36007KT 7SM RA OVC004 20/20 A2997 RMK AO2 SLP146 P0003 60029 T02000200 10217 20200 58000 $
KELD 222253Z AUTO 03005KT 10SM -RA OVC005 21/21 A2998 RMK AO2 SLP148 P0001 T02060206 $
KELD 222153Z AUTO 04006KT 5SM -RA BR OVC002 21/21 A2998 RMK AO2 RAB35 SLP149 P0002 T02060206 $
KELD 222053Z AUTO 04008KT 10SM OVC004 21/21 A2997 RMK AO2 RAE28 SLP147 P0000 60023 T02110211 56017 $
KELD 222036Z AUTO 04009KT 10SM OVC004 21/21 A2997 RMK AO2 RAE28 P0000 T02110211 $
KELD 221953Z AUTO 03009KT 9SM -RA OVC005 21/21 A2998 RMK AO2 SLP150 P0005 T02110211 $
KELD 221853Z AUTO 03005KT 7SM RA BKN005 BKN045 OVC075 21/ A3000 RMK AO2 SLP157 P0018 T0211 $
KELD 221813Z AUTO 04010KT 4SM +RA BR BKN005 BKN024 OVC040 21/21 A3002 RMK AO2 P0007 T02110211 $
KELD 221753Z AUTO 04007KT 6SM RA BR FEW004 BKN027 OVC038 22/22 A3002 RMK AO2 SLP163 P0025 60145 T02170217 10228 20217 58001 $
KELD 221736Z AUTO 05007KT 3SM RA BR SCT004 OVC027 22/22 A3002 RMK AO2 LTG DSNT E P0021 T02170217 $
KELD 221731Z AUTO 03009KT 1 3/4SM +RA BR BKN004 BKN029 OVC039 22/22 A3002 RMK AO2 LTG DSNT E P0019 T02170217 $
KELD 221712Z AUTO 35005KT 10SM -RA BKN004 BKN021 OVC046 23/23 A3003 RMK AO2 LTG DSNT E P0009 T02280228 $
KELD 221706Z AUTO 02004KT 3SM -RA BR SCT006 BKN021 OVC045 23/23 A3003 RMK AO2 LTG DSNT E P0008 T02280228 $
KELD 221700Z AUTO 02007KT 1 1/2SM +RA BR SCT006 BKN021 OVC045 23/23 A3003 RMK AO2 P0008 T02280228 $
KELD 221653Z AUTO 03007KT 1 1/2SM +RA BR BKN007 BKN021 OVC039 23/23 A3003 RMK AO2 LTG DSNT SE SLP166 P0034 T02280228 $
KELD 221648Z AUTO 03007KT 1 3/4SM +RA BR BKN007 BKN021 OVC030 23/23 A3003 RMK AO2 LTG DSNT SE P0029 $
KELD 221642Z AUTO 04008KT 3SM +RA BR FEW003 BKN009 OVC030 23/23 A3004 RMK AO2 LTG DSNT SE CIG 007V014 P0021 T02280228 $
KELD 221613Z AUTO 02005KT 3SM +RA BR SCT003 BKN012 OVC018 23/23 A3004 RMK AO2 LTG DSNT SE P0008 T02280228 $
KELD 221607Z AUTO 33004KT 2 1/2SM +RA BR SCT003 BKN007 OVC012 23/23 A3004 RMK AO2 LTG DSNT SE P0006 T02280228 $
KELD 221553Z AUTO 00000KT 3SM RA BR BKN007 OVC012 23/23 A3004 RMK AO2 CIG 004V010 SLP169 P0027 T02280228 $
KELD 221539Z AUTO 02004KT 2 1/2SM +RA BR OVC007 23/23 A3004 RMK AO2 CIG 003V010 P0023 T02280228 $
KELD 221520Z AUTO 00000KT 1 3/4SM RA BR OVC005 23/23 A3004 RMK AO2 CIG 003V008 P0010 T02280228 $
KELD 221453Z AUTO 04006KT 3SM +RA BR OVC005 23/23 A3002 RMK AO2 SLP164 P0026 60059 T02280228 53004 $
KELD 221417Z AUTO 04007KT 3SM RA BR OVC006 23/23 A3002 RMK AO2 P0016 T02280228 $
KELD 221405Z AUTO 04005KT 1 3/4SM +RA BR BKN007 OVC014 23/23 A3002 RMK AO2 P0010 T02280228 $
KELD 221353Z AUTO 04009KT 3SM RA BR SCT004 BKN007 OVC038 23/23 A3002 RMK AO2 SLP161 P0016 T02280228 $
KELD 221343Z AUTO 03007KT 1 3/4SM +RA BR OVC005 23/23 A3002 RMK AO2 VIS 1V5 CIG 003V008 P0013 T02280228 $